Time;durP1;ratioP1;P1;durP2;ratioP2;P2;SDS_P1;SDS_P2;PMS_P1;PMS_P2;Temp;Humidity;BMP_temperature;BMP_pressure;BME280_temperature;BME280_humidity;BME280_pressure;Samples;Min_cycle;Max_cycle;Signal;HPM_P1;HPM_P2
2021/10/15 00:00:20;;;;;;;27.05;22.25;;;8.50;99.90;;;;;;5019951;28;20045;-50
2021/10/15 00:02:45;;;;;;;29.80;22.45;;;8.60;99.90;;;;;;5032728;28;20098;-49
2021/10/15 00:05:11;;;;;;;26.45;21.98;;;8.60;99.90;;;;;;5081546;28;20052;-50
2021/10/15 00:07:37;;;;;;;26.45;20.55;;;8.70;99.90;;;;;;5093847;28;20039;-51
2021/10/15 00:10:04;;;;;;;28.70;22.42;;;8.80;99.90;;;;;;5104779;28;20044;-49
2021/10/15 00:12:30;;;;;;;26.17;21.33;;;8.90;99.90;;;;;;5084356;28;20086;-50
2021/10/15 00:14:56;;;;;;;30.25;22.38;;;8.80;99.90;;;;;;5092882;28;20401;-48
2021/10/15 00:17:21;;;;;;;29.75;23.75;;;8.70;99.90;;;;;;5035296;28;20036;-48
2021/10/15 00:19:47;;;;;;;29.42;22.70;;;8.80;99.90;;;;;;5083598;28;20514;-47
2021/10/15 00:22:13;;;;;;;30.75;22.52;;;8.90;99.90;;;;;;5087741;28;20032;-50
2021/10/15 00:24:39;;;;;;;26.85;22.42;;;9.00;99.90;;;;;;5083842;28;20124;-47
2021/10/15 00:27:04;;;;;;;30.27;23.45;;;8.90;99.90;;;;;;5092728;28;20030;-49
2021/10/15 00:29:30;;;;;;;27.98;22.98;;;9.00;99.90;;;;;;5087917;28;20032;-47
2021/10/15 00:31:56;;;;;;;25.40;21.25;;;9.00;99.90;;;;;;5083618;28;20029;-48
2021/10/15 00:34:22;;;;;;;28.05;21.73;;;9.00;99.90;;;;;;5085291;28;20054;-47
2021/10/15 00:36:47;;;;;;;28.75;23.02;;;9.00;99.90;;;;;;5078016;28;20041;-47
2021/10/15 00:39:13;;;;;;;30.92;22.25;;;9.10;99.90;;;;;;5085556;28;20028;-47
2021/10/15 00:41:39;;;;;;;31.52;21.98;;;9.10;99.90;;;;;;5083364;28;20028;-47
2021/10/15 00:44:10;;;;;;;27.80;21.65;;;9.20;99.90;;;;;;5066031;28;20047;-48
2021/10/15 00:46:38;;;;;;;26.15;21.27;;;9.10;99.90;;;;;;5090264;28;20021;-50
2021/10/15 00:49:06;;;;;;;25.58;20.40;;;9.10;99.90;;;;;;5084612;28;20040;-50
2021/10/15 00:51:33;;;;;;;28.75;22.67;;;8.90;99.90;;;;;;5086517;28;20028;-50
2021/10/15 00:54:00;;;;;;;28.75;22.13;;;8.90;99.90;;;;;;5071679;28;20119;-48
2021/10/15 00:56:28;;;;;;;27.58;22.15;;;8.90;99.90;;;;;;5093520;28;20379;-50
2021/10/15 00:58:55;;;;;;;30.45;23.60;;;8.90;99.90;;;;;;5070953;28;20142;-49
2021/10/15 01:01:21;;;;;;;58.58;46.17;;;8.70;99.90;;;;;;5068654;28;20071;-47
2021/10/15 01:03:47;;;;;;;46.35;35.90;;;8.60;99.90;;;;;;5069162;28;20449;-48
2021/10/15 01:06:13;;;;;;;38.55;28.67;;;8.60;99.90;;;;;;5086320;28;20462;-48
2021/10/15 01:08:44;;;;;;;34.38;27.38;;;8.60;99.90;;;;;;5082785;28;20024;-49
2021/10/15 01:11:10;;;;;;;33.25;26.73;;;8.70;99.90;;;;;;5087363;28;20027;-49
2021/10/15 01:13:37;;;;;;;34.88;27.15;;;8.70;99.90;;;;;;5086415;28;20025;-48
2021/10/15 01:16:08;;;;;;;37.85;29.95;;;8.70;99.90;;;;;;5094695;28;20419;-47
2021/10/15 01:18:34;;;;;;;34.78;26.52;;;8.80;99.90;;;;;;5081223;28;20040;-47
2021/10/15 01:21:00;;;;;;;32.30;26.30;;;8.90;99.90;;;;;;5087317;28;20042;-48
2021/10/15 01:23:26;;;;;;;35.28;26.48;;;8.90;99.90;;;;;;5089752;28;20032;-48
2021/10/15 01:25:53;;;;;;;35.45;28.35;;;8.90;99.90;;;;;;5102014;28;20039;-48
2021/10/15 01:28:24;;;;;;;38.15;28.73;;;9.00;99.90;;;;;;5087294;28;20034;-48
2021/10/15 01:30:50;;;;;;;34.97;27.60;;;9.10;99.90;;;;;;5082993;28;20122;-50
2021/10/15 01:33:17;;;;;;;35.83;28.83;;;9.00;99.90;;;;;;5088814;28;20025;-48
2021/10/15 01:35:43;;;;;;;37.25;28.00;;;9.00;99.90;;;;;;5087089;28;20115;-48
2021/10/15 01:38:09;;;;;;;38.47;29.08;;;9.10;99.90;;;;;;5085090;28;20477;-48
2021/10/15 01:40:35;;;;;;;38.92;29.70;;;9.10;99.90;;;;;;5063455;28;20127;-47
2021/10/15 01:43:01;;;;;;;41.92;30.35;;;9.10;99.90;;;;;;5082264;28;20118;-48
2021/10/15 01:45:30;;;;;;;41.92;31.00;;;9.10;99.90;;;;;;5084311;28;20028;-49
2021/10/15 01:47:57;;;;;;;39.47;29.65;;;9.00;99.90;;;;;;5085577;28;20031;-47
2021/10/15 01:50:24;;;;;;;41.47;31.88;;;8.90;99.90;;;;;;5083242;28;20081;-48
2021/10/15 01:52:51;;;;;;;39.53;30.30;;;8.90;99.90;;;;;;5084739;28;20032;-48
2021/10/15 01:55:18;;;;;;;41.95;30.02;;;8.70;99.90;;;;;;5086133;28;20036;-48
2021/10/15 01:57:44;;;;;;;41.65;31.02;;;8.70;99.90;;;;;;5082417;28;20040;-51
2021/10/15 02:00:12;;;;;;;38.20;29.15;;;8.60;99.90;;;;;;5089452;28;20031;-48
2021/10/15 02:02:39;;;;;;;42.75;31.45;;;8.60;99.90;;;;;;5065194;28;20037;-48
2021/10/15 02:05:07;;;;;;;44.85;32.58;;;8.60;99.90;;;;;;5081320;28;20052;-49
2021/10/15 02:07:33;;;;;;;42.72;29.90;;;8.50;99.90;;;;;;5077729;28;20032;-48
2021/10/15 02:09:58;;;;;;;41.20;29.98;;;8.50;99.90;;;;;;5088479;28;20031;-49
2021/10/15 02:12:24;;;;;;;36.63;28.58;;;8.50;99.90;;;;;;5068993;28;20032;-50
2021/10/15 02:14:50;;;;;;;39.40;30.10;;;8.50;99.90;;;;;;5083353;28;20144;-49
2021/10/15 02:17:16;;;;;;;42.30;30.80;;;8.70;99.90;;;;;;5087439;28;20028;-50
2021/10/15 02:19:42;;;;;;;39.28;30.58;;;8.80;99.90;;;;;;5086850;28;20097;-47
2021/10/15 02:22:08;;;;;;;40.55;30.33;;;8.90;99.90;;;;;;5064925;28;20394;-49
2021/10/15 02:24:34;;;;;;;39.08;28.83;;;9.00;99.90;;;;;;5084625;28;20029;-50
2021/10/15 02:27:00;;;;;;;35.85;27.92;;;8.90;99.90;;;;;;5058041;28;20422;-50
2021/10/15 02:29:25;;;;;;;37.38;29.48;;;9.00;99.90;;;;;;5085956;28;20408;-49
2021/10/15 02:31:51;;;;;;;37.58;27.95;;;9.10;99.90;;;;;;5081815;28;20060;-49
2021/10/15 02:34:18;;;;;;;37.85;29.55;;;9.20;99.90;;;;;;5079307;28;20031;-50
2021/10/15 02:36:44;;;;;;;40.17;29.33;;;9.00;99.90;;;;;;5085653;28;20111;-50
2021/10/15 02:39:10;;;;;;;39.90;29.50;;;9.00;99.90;;;;;;5084179;28;20040;-50
2021/10/15 02:41:37;;;;;;;42.40;30.35;;;9.00;99.90;;;;;;5085232;28;20050;-47
2021/10/15 02:44:08;;;;;;;45.60;30.33;;;8.90;99.90;;;;;;5088007;28;20036;-50
2021/10/15 02:46:35;;;;;;;41.85;29.52;;;8.80;99.90;;;;;;5082846;28;20463;-47
2021/10/15 02:49:01;;;;;;;43.80;30.98;;;8.70;99.90;;;;;;5079285;28;20441;-48
2021/10/15 02:51:27;;;;;;;45.58;33.85;;;8.40;99.90;;;;;;5084402;28;20110;-51
2021/10/15 02:53:54;;;;;;;47.75;32.97;;;8.20;99.90;;;;;;5086937;28;20111;-49
2021/10/15 02:56:21;;;;;;;51.70;33.28;;;8.30;99.90;;;;;;5083321;28;20051;-50
2021/10/15 02:58:46;;;;;;;55.60;35.88;;;8.30;99.90;;;;;;5075174;28;20028;-48
2021/10/15 03:01:12;;;;;;;57.22;36.53;;;8.30;99.90;;;;;;5080040;28;20487;-47
2021/10/15 03:03:39;;;;;;;56.10;36.25;;;8.30;99.90;;;;;;5084477;28;20097;-49
2021/10/15 03:06:04;;;;;;;41.85;30.45;;;8.30;99.90;;;;;;5085448;28;20377;-51
2021/10/15 03:08:30;;;;;;;41.15;29.48;;;8.30;99.90;;;;;;5080544;28;20157;-50
2021/10/15 03:10:56;;;;;;;44.92;31.40;;;8.20;99.90;;;;;;5077949;28;20448;-47
2021/10/15 03:13:22;;;;;;;40.97;28.33;;;8.10;99.90;;;;;;5084487;28;20460;-50
2021/10/15 03:15:47;;;;;;;42.42;30.77;;;8.10;99.90;;;;;;5067909;28;20041;-50
2021/10/15 03:18:13;;;;;;;40.67;30.42;;;8.20;99.90;;;;;;5060136;28;20032;-48
2021/10/15 03:20:40;;;;;;;40.53;29.48;;;8.30;99.90;;;;;;5049916;28;20112;-48
2021/10/15 03:23:06;;;;;;;38.25;29.10;;;8.30;99.90;;;;;;5085080;28;20085;-48
2021/10/15 03:25:32;;;;;;;39.65;29.23;;;8.30;99.90;;;;;;5085590;28;20066;-48
2021/10/15 03:27:58;;;;;;;42.40;30.60;;;8.30;99.90;;;;;;5062184;28;20036;-48
2021/10/15 03:30:23;;;;;;;36.92;27.98;;;8.40;99.90;;;;;;5078574;28;20544;-50
2021/10/15 03:32:49;;;;;;;38.95;29.08;;;8.40;99.90;;;;;;5084075;28;20028;-50
2021/10/15 03:35:15;;;;;;;39.78;28.65;;;8.40;99.90;;;;;;5090059;28;20382;-47
2021/10/15 03:37:41;;;;;;;38.42;25.48;;;8.50;99.90;;;;;;5078710;28;20058;-48
2021/10/15 03:40:07;;;;;;;40.20;29.65;;;8.30;99.90;;;;;;5085341;28;20035;-48
2021/10/15 03:42:34;;;;;;;37.63;28.58;;;8.40;99.90;;;;;;5062277;28;20041;-49
2021/10/15 03:45:00;;;;;;;38.40;27.60;;;8.40;99.90;;;;;;5089979;28;20024;-50
2021/10/15 03:47:25;;;;;;;35.38;27.92;;;8.40;99.90;;;;;;5084429;28;20020;-48
2021/10/15 03:49:51;;;;;;;36.78;26.33;;;8.30;99.90;;;;;;5083660;28;20085;-48
2021/10/15 03:52:17;;;;;;;46.72;32.67;;;8.00;99.90;;;;;;5088496;28;20068;-47
2021/10/15 03:54:43;;;;;;;42.47;29.75;;;7.90;99.90;;;;;;5086439;28;20119;-47
2021/10/15 03:57:09;;;;;;;36.28;26.50;;;7.90;99.90;;;;;;5082615;28;20089;-49
2021/10/15 03:59:34;;;;;;;39.33;28.33;;;8.00;99.90;;;;;;5066295;28;20036;-48
2021/10/15 04:02:00;;;;;;;39.17;29.38;;;8.10;99.90;;;;;;5085201;28;20356;-48
2021/10/15 04:04:28;;;;;;;40.50;30.67;;;8.10;99.90;;;;;;5089357;28;20024;-48
2021/10/15 04:06:55;;;;;;;47.28;30.63;;;8.20;99.90;;;;;;5085681;28;20035;-50
2021/10/15 04:09:21;;;;;;;41.33;29.65;;;8.30;99.90;;;;;;5089438;28;20482;-48
2021/10/15 04:11:47;;;;;;;37.72;28.90;;;8.40;99.90;;;;;;5085876;28;20016;-49
2021/10/15 04:14:12;;;;;;;36.88;27.50;;;8.50;99.90;;;;;;5087806;28;20032;-48
2021/10/15 04:16:38;;;;;;;38.38;28.85;;;8.50;99.90;;;;;;5107517;28;20046;-49
2021/10/15 04:19:04;;;;;;;38.85;29.20;;;8.50;99.90;;;;;;5087393;28;20028;-48
2021/10/15 04:21:30;;;;;;;40.03;29.88;;;8.50;99.90;;;;;;5086524;28;20024;-49
2021/10/15 04:23:55;;;;;;;38.28;29.92;;;8.50;99.90;;;;;;5087668;28;20028;-48
2021/10/15 04:26:21;;;;;;;39.08;29.17;;;8.40;99.90;;;;;;5065770;28;20064;-48
2021/10/15 04:28:47;;;;;;;39.22;28.85;;;8.30;99.90;;;;;;5085764;28;20027;-48
2021/10/15 04:31:13;;;;;;;40.10;29.92;;;8.40;99.90;;;;;;5068814;28;20036;-49
2021/10/15 04:33:39;;;;;;;43.03;32.58;;;8.50;99.90;;;;;;5087262;28;20034;-49
2021/10/15 04:36:05;;;;;;;46.45;32.55;;;8.60;99.90;;;;;;5086625;28;20127;-48
2021/10/15 04:38:31;;;;;;;48.95;34.30;;;8.60;99.90;;;;;;5067296;28;20119;-49
2021/10/15 04:40:56;;;;;;;48.70;33.38;;;8.60;99.90;;;;;;5085804;28;20031;-48
2021/10/15 04:43:23;;;;;;;47.45;33.83;;;8.70;99.90;;;;;;5071173;28;20123;-49
2021/10/15 04:45:49;;;;;;;51.53;34.10;;;8.70;99.90;;;;;;5086797;28;20392;-48
2021/10/15 04:48:15;;;;;;;44.85;31.75;;;8.70;99.90;;;;;;5053818;28;20032;-49
2021/10/15 04:50:41;;;;;;;43.33;32.45;;;8.70;99.90;;;;;;5085587;28;20131;-48
2021/10/15 04:53:08;;;;;;;53.22;34.20;;;8.70;99.90;;;;;;5084837;28;20070;-48
2021/10/15 04:55:34;;;;;;;47.20;32.97;;;8.70;99.90;;;;;;5085971;28;20032;-48
2021/10/15 04:58:01;;;;;;;39.20;29.90;;;8.60;99.90;;;;;;5092008;28;20088;-49
2021/10/15 05:00:28;;;;;;;53.70;34.05;;;8.70;99.90;;;;;;5087340;28;20032;-49
2021/10/15 05:02:54;;;;;;;50.55;33.75;;;8.80;99.90;;;;;;5092117;28;20030;-48
2021/10/15 05:05:23;;;;;;;42.80;27.85;;;8.60;99.90;;;;;;5075903;28;20443;-49
2021/10/15 05:07:49;;;;;;;34.72;25.10;;;8.60;99.90;;;;;;5084369;28;20146;-48
2021/10/15 05:10:16;;;;;;;55.67;37.30;;;8.50;99.90;;;;;;5084150;28;20056;-49
2021/10/15 05:12:42;;;;;;;44.35;31.23;;;8.60;99.90;;;;;;5089787;28;20035;-48
2021/10/15 05:15:09;;;;;;;37.45;28.02;;;8.60;99.90;;;;;;5090496;28;20254;-48
2021/10/15 05:17:36;;;;;;;42.38;31.63;;;8.70;99.90;;;;;;5084796;28;20028;-48
2021/10/15 05:20:04;;;;;;;48.30;34.58;;;8.60;99.90;;;;;;5082475;28;20020;-48
2021/10/15 05:22:30;;;;;;;44.03;31.73;;;8.70;99.90;;;;;;5067609;28;20047;-49
2021/10/15 05:24:56;;;;;;;45.60;32.08;;;8.60;99.90;;;;;;5084414;28;20028;-48
2021/10/15 05:27:21;;;;;;;48.83;32.72;;;8.60;99.90;;;;;;5067045;28;20048;-48
2021/10/15 05:29:48;;;;;;;55.20;37.75;;;8.50;99.90;;;;;;5088610;28;20013;-48
2021/10/15 05:32:15;;;;;;;56.13;38.88;;;8.60;99.90;;;;;;5085224;28;20028;-49
2021/10/15 05:34:41;;;;;;;61.03;40.00;;;8.50;99.90;;;;;;5082930;28;20025;-48
2021/10/15 05:37:07;;;;;;;53.42;37.80;;;8.50;99.90;;;;;;5084807;28;20476;-49
2021/10/15 05:39:33;;;;;;;53.03;36.15;;;8.50;99.90;;;;;;4997322;28;20087;-49
2021/10/15 05:41:59;;;;;;;61.28;39.38;;;8.60;99.90;;;;;;5050899;28;20033;-49
2021/10/15 05:44:24;;;;;;;73.07;47.63;;;8.60;99.90;;;;;;5033202;28;20113;-48
2021/10/15 05:46:50;;;;;;;55.08;40.33;;;8.70;99.90;;;;;;5050254;28;20076;-48
2021/10/15 05:49:17;;;;;;;59.38;39.28;;;8.60;99.90;;;;;;5004853;28;20096;-48
2021/10/15 05:51:44;;;;;;;62.00;40.83;;;8.60;99.90;;;;;;5062882;28;20064;-49
2021/10/15 05:54:27;;;;;;;55.13;38.25;;;8.50;99.90;;;;;;5041258;28;20035;-48
2021/10/15 05:57:04;;;;;;;55.20;37.88;;;8.60;99.90;;;;;;5061791;28;20086;-48
2021/10/15 05:59:30;;;;;;;47.88;34.00;;;8.60;99.90;;;;;;5067444;28;20041;-48
2021/10/15 06:02:01;;;;;;;48.90;34.28;;;8.40;99.90;;;;;;5056916;28;20051;-48
2021/10/15 06:14:56;;;;;;;43.85;33.05;;;8.30;99.90;;;;;;5064448;28;20101;-49
2021/10/15 06:17:22;;;;;;;46.05;34.30;;;8.40;99.90;;;;;;5061621;28;20045;-48
2021/10/15 06:19:52;;;;;;;47.35;34.63;;;8.60;99.90;;;;;;5059992;28;20191;-49
2021/10/15 06:22:26;;;;;;;43.42;29.52;;;8.60;99.90;;;;;;5079255;28;20037;-49
2021/10/15 06:24:52;;;;;;;46.00;31.73;;;8.60;99.90;;;;;;5079630;28;20032;-48
2021/10/15 06:27:19;;;;;;;42.92;31.40;;;8.60;99.90;;;;;;5065735;28;20050;-49
2021/10/15 06:29:45;;;;;;;45.88;29.70;;;8.50;99.90;;;;;;5066751;28;20039;-50
2021/10/15 06:32:11;;;;;;;35.88;25.52;;;8.40;99.90;;;;;;5050788;28;20040;-49
2021/10/15 06:34:36;;;;;;;33.53;24.00;;;8.30;99.90;;;;;;5065194;28;20044;-48
2021/10/15 06:37:02;;;;;;;33.60;25.30;;;8.30;99.90;;;;;;5076228;28;20040;-49
2021/10/15 06:39:28;;;;;;;35.05;26.02;;;8.40;99.90;;;;;;5069188;28;20573;-49
2021/10/15 06:41:54;;;;;;;35.08;25.35;;;8.60;99.90;;;;;;5036655;28;20557;-49
2021/10/15 06:44:19;;;;;;;32.97;24.13;;;8.70;99.90;;;;;;5060080;28;20037;-48
2021/10/15 06:46:45;;;;;;;32.20;23.92;;;8.70;99.90;;;;;;5061576;28;20100;-48
2021/10/15 06:49:11;;;;;;;31.77;22.35;;;8.70;99.90;;;;;;5055538;28;20056;-50
2021/10/15 06:51:37;;;;;;;35.35;25.17;;;8.40;99.90;;;;;;5055047;28;20423;-48
2021/10/15 06:54:03;;;;;;;36.80;24.38;;;8.50;99.90;;;;;;5060447;28;20035;-49
2021/10/15 06:56:29;;;;;;;36.22;25.10;;;8.50;99.90;;;;;;5058082;28;20045;-48
2021/10/15 06:58:56;;;;;;;32.13;23.63;;;8.60;99.90;;;;;;5065342;28;20032;-49
2021/10/15 07:01:22;;;;;;;35.10;23.38;;;8.70;99.90;;;;;;5061223;28;20025;-47
2021/10/15 07:03:48;;;;;;;32.58;22.90;;;8.70;99.90;;;;;;5065512;28;20048;-48
2021/10/15 07:06:13;;;;;;;32.65;23.15;;;8.60;99.90;;;;;;5073320;28;20100;-48
2021/10/15 07:08:39;;;;;;;31.83;22.60;;;8.80;99.90;;;;;;5061479;28;20111;-49
2021/10/15 07:11:05;;;;;;;28.17;20.70;;;8.90;99.90;;;;;;5086741;28;20028;-49
2021/10/15 07:13:31;;;;;;;29.77;21.75;;;8.90;99.90;;;;;;5079167;28;20037;-48
2021/10/15 07:15:58;;;;;;;28.65;21.48;;;8.90;99.90;;;;;;5081361;28;20464;-48
2021/10/15 07:18:24;;;;;;;26.70;21.30;;;8.70;99.90;;;;;;5078513;28;20043;-48
2021/10/15 07:20:50;;;;;;;26.95;20.38;;;8.80;99.90;;;;;;5078207;28;20025;-49
2021/10/15 07:23:16;;;;;;;35.58;22.45;;;9.00;99.90;;;;;;5082916;28;20055;-48
2021/10/15 07:25:43;;;;;;;27.73;20.38;;;9.20;99.90;;;;;;5084023;28;20020;-48
2021/10/15 07:28:10;;;;;;;29.77;20.98;;;9.20;99.90;;;;;;5068570;28;20048;-48
2021/10/15 07:30:35;;;;;;;26.85;19.90;;;9.40;99.90;;;;;;5077187;28;20054;-48
2021/10/15 07:33:01;;;;;;;33.30;19.40;;;9.30;99.90;;;;;;5080318;28;20028;-48
2021/10/15 07:35:28;;;;;;;24.80;19.65;;;9.30;99.90;;;;;;5058297;28;20040;-48
2021/10/15 07:37:53;;;;;;;24.10;18.73;;;9.50;99.90;;;;;;5088114;28;20089;-49
2021/10/15 07:40:19;;;;;;;25.42;18.23;;;9.40;99.90;;;;;;5084954;28;20028;-49
2021/10/15 07:42:45;;;;;;;27.95;18.38;;;9.50;99.90;;;;;;5079939;28;20039;-48
2021/10/15 07:45:11;;;;;;;26.67;18.95;;;9.30;99.90;;;;;;5062200;28;20039;-48
2021/10/15 07:47:36;;;;;;;25.45;19.42;;;9.50;99.90;;;;;;5064980;28;20040;-48
2021/10/15 07:50:03;;;;;;;23.77;18.15;;;9.50;99.90;;;;;;5079798;28;20036;-48
2021/10/15 07:52:29;;;;;;;27.05;19.83;;;9.50;99.90;;;;;;5082459;28;20090;-48
2021/10/15 07:54:54;;;;;;;25.63;19.05;;;9.60;99.90;;;;;;5071711;28;20596;-48
2021/10/15 07:57:20;;;;;;;27.70;18.92;;;9.50;99.90;;;;;;5102570;28;20092;-48
2021/10/15 07:59:46;;;;;;;27.25;18.38;;;9.80;99.90;;;;;;5087315;28;20052;-49
2021/10/15 08:02:12;;;;;;;22.85;16.42;;;10.00;99.90;;;;;;5059638;28;20047;-48
2021/10/15 08:04:38;;;;;;;31.00;19.10;;;9.90;99.90;;;;;;5087702;28;20537;-48
2021/10/15 08:07:04;;;;;;;24.48;18.35;;;10.00;99.90;;;;;;5098799;28;20032;-50
2021/10/15 08:09:30;;;;;;;27.08;19.02;;;9.70;99.90;;;;;;5083359;28;20024;-48
2021/10/15 08:11:56;;;;;;;23.38;17.13;;;9.60;99.90;;;;;;5073393;28;20120;-48
2021/10/15 08:14:22;;;;;;;29.95;18.50;;;9.30;99.90;;;;;;5070508;28;20458;-48
2021/10/15 08:16:49;;;;;;;31.08;18.75;;;9.20;99.90;;;;;;5070146;28;20044;-48
2021/10/15 08:19:15;;;;;;;26.33;17.90;;;9.40;99.90;;;;;;5067554;28;20483;-47
2021/10/15 08:21:41;;;;;;;33.45;20.33;;;9.30;99.90;;;;;;5080972;28;20024;-49
2021/10/15 08:24:09;;;;;;;30.80;18.15;;;9.50;99.90;;;;;;5079531;28;20028;-47
2021/10/15 08:26:35;;;;;;;27.52;17.58;;;9.40;99.90;;;;;;5058306;28;20147;-48
2021/10/15 08:29:00;;;;;;;29.90;19.77;;;9.40;99.90;;;;;;5082434;28;20515;-48
2021/10/15 08:31:27;;;;;;;38.40;20.25;;;9.30;99.90;;;;;;5086591;28;20035;-48
2021/10/15 08:33:54;;;;;;;29.42;19.23;;;9.60;99.90;;;;;;5086566;28;20054;-48
2021/10/15 08:36:22;;;;;;;33.67;18.88;;;9.80;99.90;;;;;;5087932;28;20119;-49
2021/10/15 08:38:49;;;;;;;39.00;18.23;;;9.80;99.90;;;;;;5084441;28;20788;-48
2021/10/15 08:41:20;;;;;;;25.58;18.17;;;9.90;99.90;;;;;;5081501;28;20046;-49
2021/10/15 08:43:45;;;;;;;25.67;17.55;;;9.80;99.90;;;;;;5084229;28;20048;-48
2021/10/15 08:46:11;;;;;;;24.10;18.15;;;9.60;99.90;;;;;;5082451;28;20067;-49
2021/10/15 08:48:41;;;;;;;26.30;17.30;;;9.80;99.90;;;;;;5073797;28;20476;-48
2021/10/15 08:51:08;;;;;;;21.98;16.83;;;10.10;99.90;;;;;;5079823;28;20109;-48
2021/10/15 08:53:48;;;;;;;41.83;26.10;;;10.30;99.90;;;;;;5058025;28;20119;-48
2021/10/15 08:56:15;;;;;;;24.65;16.67;;;10.50;99.90;;;;;;5068932;28;20071;-48
2021/10/15 08:58:44;;;;;;;26.70;17.98;;;10.40;99.90;;;;;;5037894;28;20037;-49
2021/10/15 09:01:10;;;;;;;22.65;16.30;;;10.50;99.90;;;;;;5068628;28;20033;-45
2021/10/15 09:03:36;;;;;;;21.70;16.73;;;10.40;99.90;;;;;;5061822;28;20043;-48
2021/10/15 09:06:05;;;;;;;23.60;16.77;;;10.30;99.90;;;;;;5054811;28;20483;-48
2021/10/15 09:08:53;;;;;;;26.63;20.38;;;10.20;99.90;;;;;;5067630;28;20028;-48
2021/10/15 09:11:30;;;;;;;22.90;17.00;;;10.00;99.90;;;;;;5063929;28;20045;-48
2021/10/15 09:14:12;;;;;;;20.63;16.17;;;9.90;99.90;;;;;;5069433;28;20480;-49
2021/10/15 09:16:53;;;;;;;22.27;17.02;;;10.00;99.90;;;;;;5078681;28;20052;-48
2021/10/15 09:19:27;;;;;;;23.42;17.95;;;10.20;99.90;;;;;;5067250;28;20029;-47
2021/10/15 09:22:25;;;;;;;24.92;19.73;;;10.40;99.90;;;;;;5068661;28;20040;-48
2021/10/15 09:24:59;;;;;;;26.33;16.80;;;10.50;99.90;;;;;;5004492;28;20123;-49
2021/10/15 09:28:00;;;;;;;37.20;19.20;;;10.70;99.90;;;;;;5012359;28;20038;-49
2021/10/15 09:30:28;;;;;;;21.83;16.30;;;10.80;99.90;;;;;;4949264;29;20044;-50
2021/10/15 09:32:57;;;;;;;23.17;17.10;;;10.70;99.90;;;;;;4952712;29;20052;-48
2021/10/15 09:35:28;;;;;;;21.88;16.85;;;10.60;99.90;;;;;;4936973;29;20158;-48
2021/10/15 09:38:01;;;;;;;24.15;18.17;;;10.60;99.90;;;;;;4949712;29;20039;-48
2021/10/15 09:40:32;;;;;;;25.83;17.58;;;10.90;99.90;;;;;;4953375;29;20047;-48
2021/10/15 09:43:02;;;;;;;25.67;19.45;;;11.10;99.90;;;;;;4913642;29;20032;-48
2021/10/15 09:45:39;;;;;;;21.80;15.43;;;11.20;99.90;;;;;;4914938;29;20040;-48
2021/10/15 09:48:26;;;;;;;21.75;16.67;;;11.10;99.90;;;;;;4915021;29;20135;-47
2021/10/15 09:51:19;;;;;;;23.98;17.05;;;11.20;99.90;;;;;;4895932;29;20489;-49
2021/10/15 09:54:11;;;;;;;42.58;31.95;;;11.30;99.90;;;;;;4913765;29;20047;-48
2021/10/15 09:56:46;;;;;;;26.35;17.48;;;11.20;99.90;;;;;;4899543;29;20044;-47
2021/10/15 09:59:12;;;;;;;33.75;22.83;;;11.30;99.90;;;;;;4911627;29;20047;-48
2021/10/15 10:01:41;;;;;;;27.55;20.23;;;11.40;99.90;;;;;;4949202;29;20504;-49
2021/10/15 10:04:08;;;;;;;24.80;18.77;;;11.30;99.90;;;;;;4982331;28;20092;-49
2021/10/15 10:06:34;;;;;;;23.15;17.55;;;11.20;99.90;;;;;;5041481;28;20057;-49
2021/10/15 10:09:01;;;;;;;25.70;17.80;;;11.00;99.90;;;;;;5044332;28;20083;-48
2021/10/15 10:11:29;;;;;;;39.20;22.52;;;10.90;99.90;;;;;;5046414;28;20111;-48
2021/10/15 10:13:55;;;;;;;19.27;15.45;;;11.10;99.90;;;;;;5058225;28;20503;-48
2021/10/15 10:16:28;;;;;;;20.63;15.60;;;10.90;99.90;;;;;;5080284;28;20094;-52
2021/10/15 10:19:00;;;;;;;24.38;18.25;;;10.70;99.90;;;;;;5075384;28;20419;-49
2021/10/15 10:21:33;;;;;;;20.92;16.38;;;10.60;99.90;;;;;;5083672;28;20040;-51
2021/10/15 10:24:10;;;;;;;22.42;16.63;;;10.60;99.90;;;;;;5081547;28;20067;-51
2021/10/15 10:26:51;;;;;;;25.08;18.02;;;10.80;99.90;;;;;;5069021;28;20036;-53
2021/10/15 10:29:18;;;;;;;25.75;19.00;;;10.80;99.90;;;;;;5079139;28;20028;-51
2021/10/15 10:31:44;;;;;;;34.20;24.48;;;10.70;99.90;;;;;;5077174;28;20120;-52
2021/10/15 10:34:16;;;;;;;23.73;18.00;;;10.50;99.90;;;;;;5076233;28;20032;-54
2021/10/15 10:36:42;;;;;;;28.10;19.83;;;10.40;99.90;;;;;;5076157;28;20036;-54
2021/10/15 10:39:20;;;;;;;22.13;16.77;;;10.40;99.90;;;;;;5047006;28;20064;-51
2021/10/15 10:42:06;;;;;;;29.88;21.50;;;10.60;99.90;;;;;;5075180;28;20082;-50
2021/10/15 10:44:48;;;;;;;24.73;17.80;;;10.80;99.90;;;;;;5098649;28;20498;-50
2021/10/15 10:47:21;;;;;;;20.35;15.48;;;10.60;99.90;;;;;;5059654;28;20125;-45
2021/10/15 10:50:02;;;;;;;26.25;17.55;;;10.60;99.90;;;;;;5084495;28;20028;-50
2021/10/15 10:52:31;;;;;;;21.47;16.30;;;10.70;99.90;;;;;;5081334;28;20025;-48
2021/10/15 10:54:57;;;;;;;20.45;15.77;;;10.90;99.90;;;;;;5083140;28;20105;-51
2021/10/15 10:57:32;;;;;;;20.33;16.48;;;11.00;99.90;;;;;;5084835;28;20043;-55
2021/10/15 11:00:20;;;;;;;22.00;16.95;;;11.10;99.90;;;;;;5083333;28;20109;-53
2021/10/15 11:02:48;;;;;;;24.00;19.95;;;11.20;99.90;;;;;;5088470;28;20479;-56
2021/10/15 11:05:29;;;;;;;19.92;14.85;;;11.10;99.90;;;;;;5082941;28;20655;-53
2021/10/15 11:08:23;;;;;;;19.27;15.43;;;10.80;99.90;;;;;;5076460;28;20028;-56
2021/10/15 11:10:49;;;;;;;25.52;19.77;;;11.00;99.90;;;;;;5083462;28;20547;-55
2021/10/15 11:13:36;;;;;;;25.45;18.05;;;11.00;99.90;;;;;;5089776;28;20031;-57
2021/10/15 11:16:21;;;;;;;19.88;14.75;;;11.00;99.90;;;;;;5084996;28;20082;-50
2021/10/15 11:18:47;;;;;;;20.95;15.65;;;11.10;99.90;;;;;;5086884;28;20069;-49
2021/10/15 11:21:13;;;;;;;18.00;15.55;;;11.10;99.90;;;;;;5050141;28;20036;-52
2021/10/15 11:23:40;;;;;;;25.55;16.85;;;10.90;99.90;;;;;;5085970;28;20032;-51
2021/10/15 11:26:07;;;;;;;19.88;15.93;;;10.90;99.90;;;;;;5087721;28;20030;-51
2021/10/15 11:28:33;;;;;;;20.45;15.85;;;10.70;99.90;;;;;;5078197;28;20025;-49
2021/10/15 11:30:59;;;;;;;20.13;14.45;;;10.80;99.90;;;;;;5086412;28;20021;-55
2021/10/15 11:33:26;;;;;;;20.38;14.90;;;10.60;99.90;;;;;;5089471;28;20032;-50
2021/10/15 11:35:53;;;;;;;24.80;17.58;;;10.50;99.90;;;;;;5088970;28;20050;-47
2021/10/15 11:38:27;;;;;;;18.52;15.27;;;10.50;99.90;;;;;;5083575;28;20083;-55
2021/10/15 11:40:58;;;;;;;24.30;16.55;;;10.50;99.90;;;;;;5081829;28;20032;-54
2021/10/15 11:43:29;;;;;;;20.70;16.55;;;10.60;99.90;;;;;;5087605;28;20082;-50
2021/10/15 11:46:03;;;;;;;22.58;16.23;;;10.70;99.90;;;;;;5087561;28;20433;-53
2021/10/15 11:48:34;;;;;;;19.63;14.20;;;10.70;99.90;;;;;;5084374;28;20032;-54
2021/10/15 11:51:05;;;;;;;27.63;17.90;;;10.70;99.90;;;;;;5088478;28;20471;-51
2021/10/15 11:53:40;;;;;;;31.15;21.85;;;10.60;99.90;;;;;;5084449;28;20031;-52
2021/10/15 11:56:17;;;;;;;22.67;16.70;;;10.50;99.90;;;;;;5083969;28;20044;-51
2021/10/15 11:58:45;;;;;;;27.52;19.13;;;10.50;99.90;;;;;;5094461;28;20020;-49
2021/10/15 12:01:14;;;;;;;25.45;17.50;;;10.50;99.90;;;;;;5083115;28;20094;-49
2021/10/15 12:03:58;;;;;;;22.90;16.00;;;10.30;99.90;;;;;;5082663;28;20055;-52
2021/10/15 12:06:30;;;;;;;22.42;14.90;;;10.40;99.90;;;;;;5067656;28;20403;-48
2021/10/15 12:09:02;;;;;;;18.35;12.75;;;10.40;99.90;;;;;;5083724;28;20038;-57
2021/10/15 12:11:34;;;;;;;;;;;10.40;99.90;;;;;;5085995;28;20081;-52
2021/10/15 12:14:06;;;;;;;28.65;16.20;;;10.30;99.90;;;;;;5082747;28;19915;-50
2021/10/15 12:16:34;;;;;;;27.10;15.57;;;10.30;99.90;;;;;;5026830;28;20036;-51
2021/10/15 12:19:02;;;;;;;26.13;18.95;;;10.30;99.90;;;;;;5059551;28;20369;-54
2021/10/15 12:21:44;;;;;;;28.52;17.95;;;10.30;99.90;;;;;;5057880;28;20036;-56
2021/10/15 12:24:32;;;;;;;32.13;20.52;;;10.50;99.90;;;;;;5064176;28;20032;-50
2021/10/15 12:27:18;;;;;;;23.85;16.33;;;10.30;99.90;;;;;;5028652;28;20428;-50
2021/10/15 12:29:47;;;;;;;57.33;32.95;;;10.40;99.90;;;;;;5050046;28;20036;-51
2021/10/15 12:32:14;;;;;;;28.20;18.90;;;10.50;99.90;;;;;;5068481;28;20032;-51
2021/10/15 12:35:00;;;;;;;25.10;17.20;;;10.50;99.90;;;;;;5033283;28;20033;-51
2021/10/15 12:37:28;;;;;;;27.33;18.08;;;10.60;99.90;;;;;;5029392;28;20511;-58
2021/10/15 12:40:07;;;;;;;29.77;22.40;;;10.40;99.90;;;;;;5065035;28;20086;-52
2021/10/15 12:42:33;;;;;;;26.58;18.85;;;10.30;99.90;;;;;;5048874;28;20039;-50
2021/10/15 12:45:07;;;;;;;31.58;19.48;;;10.50;99.90;;;;;;5049356;28;20033;-50
2021/10/15 12:47:33;;;;;;;27.65;17.70;;;10.60;99.90;;;;;;5056226;28;20043;-51
2021/10/15 12:50:01;;;;;;;38.45;25.08;;;10.60;99.90;;;;;;5098681;28;20020;-51